Time;durP1;ratioP1;P1;durP2;ratioP2;P2;SDS_P1;SDS_P2;PMS_P1;PMS_P2;Temp;Humidity;BMP_temperature;BMP_pressure;BME280_temperature;BME280_humidity;BME280_pressure;Samples;Min_cycle;Max_cycle;Signal;HPM_P1;HPM_P2
2022/04/09 00:03:00;;;;;;;;;10.25;6.50;;;;;;;;5082999;27;51142;-48
2022/04/09 00:05:47;;;;;;;;;10.00;9.50;;;;;;;;5099575;27;51212;-45
2022/04/09 00:08:33;;;;;;;;;6.25;6.25;;;;;;;;5101577;27;51345;-48
2022/04/09 00:11:34;;;;;;;;;10.25;5.25;;;;;;;;5094941;27;51170;-47
2022/04/09 00:14:19;;;;;;;;;9.75;6.50;;;;;;;;5101919;27;51143;-48
2022/04/09 00:17:03;;;;;;;;;8.25;6.50;;;;;;;;5098704;27;51085;-48
2022/04/09 00:19:48;;;;;;;;;10.75;7.00;;;;;;;;5101742;27;51035;-46
2022/04/09 00:22:34;;;;;;;;;8.00;6.25;;;;;;;;5100019;27;51125;-47
2022/04/09 00:25:24;;;;;;;;;11.75;7.00;;;;;;;;5101204;27;51430;-46
2022/04/09 00:28:09;;;;;;;;;4.25;4.00;;;;;;;;5100724;27;51227;-45
2022/04/09 00:30:56;;;;;;;;;10.00;7.00;;;;;;;;5100788;27;51220;-46
2022/04/09 00:33:41;;;;;;;;;5.50;5.00;;;;;;;;5101001;27;51458;-47
2022/04/09 00:36:47;;;;;;;;;10.00;7.00;;;;;;;;5080760;27;51182;-47
2022/04/09 00:39:52;;;;;;;;;8.50;4.50;;;;;;;;5095220;27;51113;-47
2022/04/09 00:42:52;;;;;;;;;9.75;6.25;;;;;;;;5097191;27;51172;-46
2022/04/09 00:46:02;;;;;;;;;10.00;6.00;;;;;;;;5079466;27;51079;-45
2022/04/09 00:48:47;;;;;;;;;5.25;5.25;;;;;;;;5097524;27;51124;-45
2022/04/09 00:51:53;;;;;;;;;9.00;5.75;;;;;;;;5098119;27;51488;-46
2022/04/09 00:54:38;;;;;;;;;8.50;6.00;;;;;;;;5098310;27;51308;-47
2022/04/09 00:57:26;;;;;;;;;7.00;5.00;;;;;;;;5100872;27;51053;-48
2022/04/09 01:00:14;;;;;;;;;8.50;6.50;;;;;;;;5100946;27;51420;-50
2022/04/09 01:02:59;;;;;;;;;12.00;5.00;;;;;;;;5087996;27;51124;-48
2022/04/09 01:05:50;;;;;;;;;11.00;6.50;;;;;;;;5099498;27;51440;-47
2022/04/09 01:08:35;;;;;;;;;14.00;6.75;;;;;;;;5100435;27;51182;-49
2022/04/09 01:11:41;;;;;;;;;8.50;6.50;;;;;;;;5101014;27;51168;-47
2022/04/09 01:14:30;;;;;;;;;8.00;5.50;;;;;;;;5100280;27;51532;-49
2022/04/09 01:17:23;;;;;;;;;9.25;5.00;;;;;;;;5100282;27;51522;-50
2022/04/09 01:20:14;;;;;;;;;8.00;4.00;;;;;;;;5097313;27;51130;-49
2022/04/09 01:22:59;;;;;;;;;7.25;5.25;;;;;;;;5097449;27;51060;-45
2022/04/09 01:25:46;;;;;;;;;10.50;6.00;;;;;;;;5098355;27;51570;-48
2022/04/09 01:28:32;;;;;;;;;6.75;4.00;;;;;;;;5099265;27;51283;-50
2022/04/09 01:31:28;;;;;;;;;5.75;4.50;;;;;;;;5097890;27;51138;-50
2022/04/09 01:34:15;;;;;;;;;10.00;5.75;;;;;;;;5098338;27;51205;-47
2022/04/09 01:37:00;;;;;;;;;6.00;6.00;;;;;;;;5100823;27;51139;-50
2022/04/09 01:39:44;;;;;;;;;9.75;6.00;;;;;;;;5100046;27;51142;-48
2022/04/09 01:42:50;;;;;;;;;8.25;6.50;;;;;;;;5100152;27;51211;-49
2022/04/09 01:45:35;;;;;;;;;5.50;4.50;;;;;;;;5099400;27;51151;-49
2022/04/09 01:48:20;;;;;;;;;8.50;6.50;;;;;;;;5100588;27;51109;-50
2022/04/09 01:51:06;;;;;;;;;5.75;5.00;;;;;;;;5099923;27;51132;-48
2022/04/09 01:53:50;;;;;;;;;10.50;5.25;;;;;;;;5087938;27;51126;-50
2022/04/09 01:56:36;;;;;;;;;9.00;3.50;;;;;;;;5100112;27;51495;-49
2022/04/09 01:59:22;;;;;;;;;7.75;6.25;;;;;;;;5100066;27;51207;-45
2022/04/09 02:02:08;;;;;;;;;9.75;7.75;;;;;;;;5100107;27;51039;-47
2022/04/09 02:04:52;;;;;;;;;6.00;5.75;;;;;;;;5086092;27;51258;-46
2022/04/09 02:08:00;;;;;;;;;7.75;6.00;;;;;;;;5099352;27;51600;-49
2022/04/09 02:10:55;;;;;;;;;7.00;6.00;;;;;;;;5099700;27;51138;-47
2022/04/09 02:13:42;;;;;;;;;7.75;5.75;;;;;;;;5089725;27;52005;-51
2022/04/09 02:16:37;;;;;;;;;8.50;6.00;;;;;;;;5096997;27;51071;-48
2022/04/09 02:19:26;;;;;;;;;11.25;6.50;;;;;;;;5099850;27;51009;-47
2022/04/09 02:22:17;;;;;;;;;5.75;5.75;;;;;;;;5100299;27;51173;-46
2022/04/09 02:25:07;;;;;;;;;10.00;7.50;;;;;;;;5099573;27;51039;-49
2022/04/09 02:28:04;;;;;;;;;6.00;6.00;;;;;;;;5100203;27;51171;-45
2022/04/09 02:30:50;;;;;;;;;7.25;5.50;;;;;;;;5049104;28;51426;-45
2022/04/09 02:33:36;;;;;;;;;11.00;5.00;;;;;;;;5058679;28;51437;-47
2022/04/09 02:36:37;;;;;;;;;12.50;7.25;;;;;;;;5058767;28;51158;-45
2022/04/09 02:39:23;;;;;;;;;6.75;5.00;;;;;;;;5059312;28;52274;-49
2022/04/09 02:42:08;;;;;;;;;6.50;5.50;;;;;;;;5058763;28;51360;-46
2022/04/09 02:45:06;;;;;;;;;8.75;5.75;;;;;;;;5054123;28;51164;-47
2022/04/09 02:47:59;;;;;;;;;6.50;6.00;;;;;;;;5058782;28;51231;-46
2022/04/09 02:50:48;;;;;;;;;5.50;4.00;;;;;;;;5058603;28;51149;-50
2022/04/09 02:53:32;;;;;;;;;7.00;6.00;;;;;;;;5058937;28;51154;-47
2022/04/09 02:56:46;;;;;;;;;7.00;6.00;;;;;;;;5040322;28;51167;-45
2022/04/09 02:59:52;;;;;;;;;4.75;4.75;;;;;;;;5060871;28;51130;-45
2022/04/09 03:02:36;;;;;;;;;5.00;4.25;;;;;;;;5062328;28;51192;-46
2022/04/09 03:05:21;;;;;;;;;6.25;5.00;;;;;;;;5043152;28;51247;-47
2022/04/09 03:08:06;;;;;;;;;7.75;5.00;;;;;;;;5045151;28;51220;-45
2022/04/09 03:10:53;;;;;;;;;7.00;5.00;;;;;;;;5062181;28;51157;-47
2022/04/09 03:13:39;;;;;;;;;7.00;5.00;;;;;;;;5062087;28;51487;-51
2022/04/09 03:16:29;;;;;;;;;6.75;6.00;;;;;;;;5054438;28;51462;-51
2022/04/09 03:19:14;;;;;;;;;4.00;3.25;;;;;;;;5061708;28;51090;-46
2022/04/09 03:21:59;;;;;;;;;6.25;5.25;;;;;;;;5061837;28;51189;-46
2022/04/09 03:24:45;;;;;;;;;6.00;5.00;;;;;;;;5062286;28;51054;-47
2022/04/09 03:27:41;;;;;;;;;4.00;3.75;;;;;;;;5048649;28;51141;-46
2022/04/09 03:30:29;;;;;;;;;4.00;4.00;;;;;;;;5057672;27;51040;-48
2022/04/09 03:33:17;;;;;;;;;6.00;4.00;;;;;;;;5102386;27;51567;-46
2022/04/09 03:36:05;;;;;;;;;9.00;6.00;;;;;;;;5086978;27;51087;-46
2022/04/09 03:38:51;;;;;;;;;5.75;4.25;;;;;;;;5102138;27;51086;-45
2022/04/09 03:41:38;;;;;;;;;7.50;6.00;;;;;;;;5102365;27;51305;-51
2022/04/09 03:44:23;;;;;;;;;8.25;4.50;;;;;;;;5102456;27;51195;-46
2022/04/09 03:47:09;;;;;;;;;7.25;6.00;;;;;;;;5102526;27;51145;-46
2022/04/09 03:49:57;;;;;;;;;6.75;5.75;;;;;;;;5102485;27;51883;-48
2022/04/09 03:53:07;;;;;;;;;9.00;6.75;;;;;;;;5102223;27;51135;-46
2022/04/09 03:55:57;;;;;;;;;6.00;6.00;;;;;;;;5102336;27;51165;-47
2022/04/09 03:58:43;;;;;;;;;10.25;5.00;;;;;;;;5090173;27;51365;-45
2022/04/09 04:01:42;;;;;;;;;9.00;5.00;;;;;;;;5100064;27;51072;-49
2022/04/09 04:04:27;;;;;;;;;14.00;7.75;;;;;;;;5101855;27;51315;-46
2022/04/09 04:07:23;;;;;;;;;8.50;6.00;;;;;;;;5101642;27;51176;-47
2022/04/09 04:10:12;;;;;;;;;7.50;6.00;;;;;;;;5081318;27;51030;-45
2022/04/09 04:12:58;;;;;;;;;7.50;6.75;;;;;;;;5099331;27;51202;-45
2022/04/09 04:15:44;;;;;;;;;10.75;6.25;;;;;;;;5101872;27;52019;-46
2022/04/09 04:18:29;;;;;;;;;7.00;7.00;;;;;;;;5101375;27;51136;-48
2022/04/09 04:21:14;;;;;;;;;13.75;12.25;;;;;;;;5102110;27;51136;-45
2022/04/09 04:24:00;;;;;;;;;17.50;17.50;;;;;;;;5087296;27;51358;-46
2022/04/09 04:26:44;;;;;;;;;19.25;18.00;;;;;;;;5082225;27;51177;-50
2022/04/09 04:29:28;;;;;;;;;24.25;18.00;;;;;;;;5092381;27;51056;-50
2022/04/09 04:32:14;;;;;;;;;27.75;20.50;;;;;;;;5083998;27;51147;-46
2022/04/09 04:35:21;;;;;;;;;27.25;21.00;;;;;;;;5086782;27;51249;-47
2022/04/09 04:38:07;;;;;;;;;28.25;23.00;;;;;;;;5087724;27;51105;-47
2022/04/09 04:40:57;;;;;;;;;32.25;24.50;;;;;;;;5080672;27;51422;-45
2022/04/09 04:43:48;;;;;;;;;27.75;23.00;;;;;;;;5100401;27;51110;-47
2022/04/09 04:46:46;;;;;;;;;28.25;25.25;;;;;;;;5080868;27;51094;-45
2022/04/09 04:49:30;;;;;;;;;34.50;27.00;;;;;;;;5084346;27;51454;-46
2022/04/09 04:52:15;;;;;;;;;33.00;28.00;;;;;;;;5088885;27;51172;-49
2022/04/09 04:55:00;;;;;;;;;42.75;32.50;;;;;;;;5100834;27;51597;-47
2022/04/09 04:57:54;;;;;;;;;34.75;30.50;;;;;;;;5078856;27;51120;-48
2022/04/09 05:00:38;;;;;;;;;38.50;31.50;;;;;;;;5100080;27;51239;-46
2022/04/09 05:03:28;;;;;;;;;35.25;31.50;;;;;;;;5100623;27;51211;-47
2022/04/09 05:06:22;;;;;;;;;57.50;45.00;;;;;;;;5100386;27;51512;-46
2022/04/09 05:09:09;;;;;;;;;40.50;32.50;;;;;;;;5100562;27;51105;-46
2022/04/09 05:12:05;;;;;;;;;36.00;29.00;;;;;;;;5101007;27;51126;-45
2022/04/09 05:15:12;;;;;;;;;41.25;33.00;;;;;;;;5100254;27;51239;-46
2022/04/09 05:17:57;;;;;;;;;35.00;30.25;;;;;;;;5100725;27;51091;-45
2022/04/09 05:20:42;;;;;;;;;40.00;34.50;;;;;;;;5099501;27;52191;-45
2022/04/09 05:23:30;;;;;;;;;43.00;35.00;;;;;;;;5100265;27;51058;-48
2022/04/09 05:26:15;;;;;;;;;46.75;36.00;;;;;;;;5096466;27;51163;-47
2022/04/09 05:29:01;;;;;;;;;45.25;35.00;;;;;;;;5097982;27;51402;-45
2022/04/09 05:31:49;;;;;;;;;39.00;35.00;;;;;;;;5100024;27;51108;-48
2022/04/09 05:34:35;;;;;;;;;41.75;33.25;;;;;;;;5094852;27;51582;-46
2022/04/09 05:37:20;;;;;;;;;40.25;35.75;;;;;;;;5100552;27;51093;-47
2022/04/09 05:40:08;;;;;;;;;47.00;36.00;;;;;;;;5089808;27;51170;-45
2022/04/09 05:42:53;;;;;;;;;43.75;34.50;;;;;;;;5088241;27;51127;-48
2022/04/09 05:45:39;;;;;;;;;44.00;35.25;;;;;;;;5079855;27;51663;-46
2022/04/09 05:48:35;;;;;;;;;47.75;36.00;;;;;;;;5081345;27;51259;-45
2022/04/09 05:51:20;;;;;;;;;45.00;35.75;;;;;;;;5096288;27;52379;-48
2022/04/09 05:54:05;;;;;;;;;43.75;36.50;;;;;;;;5079221;27;51192;-46
2022/04/09 05:56:51;;;;;;;;;39.50;32.75;;;;;;;;5079952;27;51154;-46
2022/04/09 05:59:40;;;;;;;;;42.75;34.25;;;;;;;;5099516;27;51024;-46
2022/04/09 06:02:25;;;;;;;;;44.25;35.75;;;;;;;;5100205;27;51053;-45
2022/04/09 06:05:20;;;;;;;;;47.75;38.75;;;;;;;;5069966;27;50993;-45
2022/04/09 06:08:07;;;;;;;;;46.75;39.00;;;;;;;;5081645;27;51173;-46
2022/04/09 06:11:01;;;;;;;;;42.00;34.25;;;;;;;;5097184;27;51569;-47
2022/04/09 06:13:52;;;;;;;;;42.75;35.75;;;;;;;;5093388;27;51073;-49
2022/04/09 06:16:46;;;;;;;;;37.75;34.00;;;;;;;;5092338;27;51413;-47
2022/04/09 06:19:31;;;;;;;;;46.50;35.25;;;;;;;;5082970;27;51436;-46
2022/04/09 06:22:18;;;;;;;;;41.50;33.50;;;;;;;;5098143;27;51788;-46
2022/04/09 06:25:15;;;;;;;;;44.50;34.25;;;;;;;;5099826;27;51643;-50
2022/04/09 06:28:00;;;;;;;;;46.50;36.25;;;;;;;;5100156;27;51257;-47
2022/04/09 06:30:55;;;;;;;;;49.75;37.75;;;;;;;;5099186;27;51047;-47
2022/04/09 06:33:45;;;;;;;;;42.25;34.00;;;;;;;;5103257;27;51091;-45
2022/04/09 06:36:31;;;;;;;;;43.50;35.00;;;;;;;;5095818;27;51139;-45
2022/04/09 06:39:19;;;;;;;;;41.75;33.50;;;;;;;;5101085;27;51104;-46
2022/04/09 06:42:04;;;;;;;;;47.25;35.25;;;;;;;;5091521;27;51105;-46
2022/04/09 06:45:09;;;;;;;;;45.50;36.25;;;;;;;;5078875;27;51391;-46
2022/04/09 06:47:54;;;;;;;;;42.00;33.50;;;;;;;;5084234;27;51899;-47
2022/04/09 06:50:39;;;;;;;;;38.75;32.00;;;;;;;;5090609;27;51105;-46
2022/04/09 06:53:23;;;;;;;;;46.00;35.25;;;;;;;;5083057;27;51070;-48
2022/04/09 06:56:08;;;;;;;;;44.00;33.75;;;;;;;;5080970;27;51525;-44
2022/04/09 06:58:55;;;;;;;;;53.00;43.00;;;;;;;;5094360;27;52370;-45
2022/04/09 07:01:54;;;;;;;;;50.00;39.50;;;;;;;;5091822;27;51594;-52
2022/04/09 07:04:39;;;;;;;;;38.00;32.75;;;;;;;;5100546;27;51015;-51
2022/04/09 07:07:26;;;;;;;;;38.50;32.25;;;;;;;;5082338;27;51159;-49
2022/04/09 07:10:11;;;;;;;;;33.75;30.50;;;;;;;;5087358;27;51157;-49
2022/04/09 07:12:57;;;;;;;;;35.50;31.00;;;;;;;;5093752;27;51751;-51
2022/04/09 07:15:43;;;;;;;;;37.75;30.50;;;;;;;;5101132;27;51144;-48
2022/04/09 07:18:27;;;;;;;;;42.00;34.00;;;;;;;;5083161;27;51187;-52
2022/04/09 07:21:13;;;;;;;;;37.00;30.25;;;;;;;;5102931;27;51337;-50
2022/04/09 07:23:58;;;;;;;;;38.50;32.50;;;;;;;;5103154;27;51117;-50
2022/04/09 07:26:43;;;;;;;;;33.25;29.50;;;;;;;;5102825;27;51193;-49
2022/04/09 07:29:40;;;;;;;;;37.00;31.25;;;;;;;;5092971;27;51081;-48
2022/04/09 07:32:25;;;;;;;;;35.00;30.00;;;;;;;;5064602;27;51338;-49
2022/04/09 07:35:12;;;;;;;;;33.00;26.25;;;;;;;;5075555;27;51512;-48
2022/04/09 07:38:00;;;;;;;;;35.00;30.50;;;;;;;;5042469;28;51116;-48
2022/04/09 07:40:57;;;;;;;;;38.50;33.25;;;;;;;;5052239;28;51230;-51
2022/04/09 07:43:42;;;;;;;;;33.25;29.00;;;;;;;;5053944;28;51142;-49
2022/04/09 07:46:26;;;;;;;;;28.00;25.50;;;;;;;;5060547;28;51018;-50
2022/04/09 07:49:26;;;;;;;;;31.50;29.25;;;;;;;;5042141;28;51068;-51
2022/04/09 07:52:20;;;;;;;;;31.75;27.50;;;;;;;;5059820;28;51095;-52
2022/04/09 07:55:12;;;;;;;;;34.50;28.75;;;;;;;;5050713;28;51065;-52
2022/04/09 07:58:06;;;;;;;;;32.25;30.75;;;;;;;;5061719;28;51198;-51
2022/04/09 08:00:57;;;;;;;;;29.25;28.50;;;;;;;;5061944;28;51380;-50
2022/04/09 08:03:44;;;;;;;;;35.25;31.75;;;;;;;;5058571;28;51462;-50
2022/04/09 08:06:33;;;;;;;;;40.50;35.00;;;;;;;;5058079;28;51207;-53
2022/04/09 08:09:17;;;;;;;;;46.50;35.75;;;;;;;;5034305;28;51525;-50
2022/04/09 08:12:07;;;;;;;;;44.25;35.25;;;;;;;;5032529;28;51561;-52
2022/04/09 08:14:53;;;;;;;;;35.75;32.25;;;;;;;;5035512;28;51416;-51
2022/04/09 08:17:49;;;;;;;;;45.00;33.00;;;;;;;;5055692;28;51403;-49
2022/04/09 08:20:34;;;;;;;;;42.50;33.25;;;;;;;;5059149;28;51138;-49
2022/04/09 08:23:20;;;;;;;;;35.25;30.50;;;;;;;;5059268;28;51828;-49
2022/04/09 08:26:14;;;;;;;;;35.25;29.25;;;;;;;;5050520;28;51071;-50
2022/04/09 08:29:20;;;;;;;;;33.75;27.50;;;;;;;;5039055;28;51589;-50
2022/04/09 08:32:05;;;;;;;;;31.50;26.75;;;;;;;;5074569;27;51185;-50
2022/04/09 08:34:51;;;;;;;;;35.50;31.00;;;;;;;;5086436;27;51174;-47
2022/04/09 08:37:38;;;;;;;;;37.50;31.25;;;;;;;;5093183;27;51377;-49
2022/04/09 08:40:22;;;;;;;;;36.75;31.75;;;;;;;;5083314;27;51302;-49
2022/04/09 08:43:07;;;;;;;;;32.75;29.75;;;;;;;;5085288;27;51630;-47
2022/04/09 08:45:54;;;;;;;;;15.75;15.75;;;;;;;;5067371;27;51214;-48
2022/04/09 08:48:42;;;;;;;;;28.50;24.75;;;;;;;;5088498;27;51875;-51
2022/04/09 08:51:27;;;;;;;;;27.00;24.25;;;;;;;;5078085;27;51145;-49
2022/04/09 08:54:22;;;;;;;;;28.00;26.75;;;;;;;;5083735;27;51543;-51
2022/04/09 08:57:11;;;;;;;;;37.25;29.75;;;;;;;;5093815;27;51037;-50
2022/04/09 08:59:55;;;;;;;;;33.50;24.00;;;;;;;;5094993;27;51194;-52
2022/04/09 09:02:50;;;;;;;;;36.25;30.75;;;;;;;;5093833;27;51388;-48
2022/04/09 09:05:41;;;;;;;;;33.00;29.50;;;;;;;;5077652;27;53094;-48
2022/04/09 09:08:46;;;;;;;;;38.50;31.25;;;;;;;;5090358;27;51058;-51
2022/04/09 09:11:43;;;;;;;;;26.00;21.75;;;;;;;;5089096;27;51152;-49
2022/04/09 09:14:29;;;;;;;;;26.50;20.00;;;;;;;;5074402;27;52241;-47
2022/04/09 09:17:25;;;;;;;;;11.75;7.00;;;;;;;;5071642;27;51655;-52
2022/04/09 09:20:14;;;;;;;;;9.25;5.00;;;;;;;;5092817;27;51326;-45
2022/04/09 09:23:00;;;;;;;;;11.00;7.00;;;;;;;;5087713;27;51486;-47
2022/04/09 09:25:50;;;;;;;;;13.00;7.50;;;;;;;;5076879;27;51138;-46
2022/04/09 09:29:01;;;;;;;;;10.25;7.00;;;;;;;;5071384;27;51210;-46
2022/04/09 09:31:58;;;;;;;;;8.00;5.00;;;;;;;;5091543;27;52324;-46
2022/04/09 09:34:55;;;;;;;;;8.00;6.00;;;;;;;;5075863;27;51139;-44
2022/04/09 09:37:40;;;;;;;;;9.75;7.00;;;;;;;;5075984;27;51301;-46
2022/04/09 09:40:33;;;;;;;;;12.25;9.25;;;;;;;;5094600;27;51544;-46
2022/04/09 09:43:20;;;;;;;;;12.50;10.00;;;;;;;;5095415;27;51829;-44
2022/04/09 09:46:04;;;;;;;;;12.25;10.00;;;;;;;;5079402;27;51691;-46
2022/04/09 09:48:50;;;;;;;;;16.50;12.00;;;;;;;;5093012;27;51344;-46
2022/04/09 09:51:35;;;;;;;;;19.50;14.00;;;;;;;;5074023;27;51488;-44
2022/04/09 09:54:23;;;;;;;;;10.00;8.75;;;;;;;;5076633;27;51567;-45
2022/04/09 09:57:30;;;;;;;;;14.50;12.00;;;;;;;;5084465;27;51541;-48
2022/04/09 10:00:18;;;;;;;;;12.75;9.50;;;;;;;;5093496;27;51101;-44
2022/04/09 10:03:05;;;;;;;;;14.00;12.50;;;;;;;;5093519;27;51191;-48
2022/04/09 10:05:53;;;;;;;;;17.00;14.50;;;;;;;;5075394;27;51762;-49
2022/04/09 10:08:37;;;;;;;;;13.25;13.25;;;;;;;;5078125;27;51220;-44
2022/04/09 10:11:23;;;;;;;;;27.00;20.50;;;;;;;;5095223;27;51031;-44
2022/04/09 10:14:10;;;;;;;;;27.50;22.75;;;;;;;;5079176;27;51338;-46
2022/04/09 10:16:58;;;;;;;;;30.75;23.50;;;;;;;;5077385;27;51224;-46
2022/04/09 10:19:43;;;;;;;;;15.00;13.50;;;;;;;;5079062;27;51436;-45
2022/04/09 10:22:35;;;;;;;;;13.00;12.75;;;;;;;;5095314;27;51254;-45
2022/04/09 10:25:29;;;;;;;;;21.25;18.50;;;;;;;;5095246;27;51262;-46
2022/04/09 10:28:28;;;;;;;;;13.00;9.75;;;;;;;;5067444;27;51221;-48
2022/04/09 10:31:22;;;;;;;;;9.00;7.00;;;;;;;;5064734;27;52000;-44
2022/04/09 10:36:55;;;;;;;;;11.00;9.75;;;;;;;;4952434;28;52857;-47
2022/04/09 10:39:45;;;;;;;;;10.75;10.00;;;;;;;;4986188;28;51336;-45
2022/04/09 10:42:46;;;;;;;;;9.75;9.00;;;;;;;;4996467;28;51384;-47
2022/04/09 10:45:53;;;;;;;;;13.25;10.25;;;;;;;;4996148;28;51512;-46
2022/04/09 10:48:48;;;;;;;;;13.50;11.00;;;;;;;;5000087;28;51537;-49
2022/04/09 10:52:00;;;;;;;;;15.75;12.25;;;;;;;;4996120;28;51526;-47
2022/04/09 10:55:04;;;;;;;;;11.25;11.25;;;;;;;;4996140;28;51155;-46
2022/04/09 10:57:51;;;;;;;;;17.25;12.75;;;;;;;;4993247;28;51423;-49
2022/04/09 11:00:37;;;;;;;;;17.75;12.50;;;;;;;;4997889;28;51155;-48
2022/04/09 11:03:33;;;;;;;;;28.25;21.75;;;;;;;;4998877;28;51656;-48
2022/04/09 11:06:44;;;;;;;;;24.00;22.50;;;;;;;;4998248;28;51513;-45
2022/04/09 11:09:50;;;;;;;;;14.00;8.75;;;;;;;;5001846;28;51124;-46
2022/04/09 11:12:40;;;;;;;;;31.25;19.75;;;;;;;;5001538;28;51604;-48
2022/04/09 11:15:28;;;;;;;;;22.00;17.25;;;;;;;;5001303;28;51566;-46
2022/04/09 11:18:13;;;;;;;;;31.50;18.00;;;;;;;;5000590;28;51330;-48
2022/04/09 11:21:00;;;;;;;;;27.50;21.00;;;;;;;;5001784;28;51074;-48
2022/04/09 11:24:06;;;;;;;;;20.50;18.50;;;;;;;;5001323;28;51426;-47
2022/04/09 11:27:13;;;;;;;;;25.00;19.50;;;;;;;;5001807;28;52164;-49
2022/04/09 11:30:01;;;;;;;;;23.00;18.25;;;;;;;;5001878;28;51252;-49
2022/04/09 11:32:48;;;;;;;;;23.75;19.25;;;;;;;;5001102;28;51425;-47
2022/04/09 11:35:33;;;;;;;;;24.25;20.75;;;;;;;;4994453;28;51151;-47
2022/04/09 11:38:18;;;;;;;;;15.50;11.75;;;;;;;;5019180;28;51103;-51
2022/04/09 11:41:19;;;;;;;;;14.00;10.25;;;;;;;;5037766;28;51531;-48
2022/04/09 11:44:04;;;;;;;;;11.00;10.00;;;;;;;;5039052;28;51475;-48
2022/04/09 11:46:54;;;;;;;;;13.00;10.25;;;;;;;;5037185;28;51318;-46
2022/04/09 11:49:39;;;;;;;;;11.25;10.25;;;;;;;;5040924;28;51462;-50
2022/04/09 11:52:27;;;;;;;;;12.25;9.00;;;;;;;;5038300;28;51155;-47
2022/04/09 11:55:14;;;;;;;;;18.75;17.50;;;;;;;;5041252;28;51076;-47
2022/04/09 11:57:59;;;;;;;;;10.00;10.00;;;;;;;;5040787;28;51131;-46
2022/04/09 12:00:47;;;;;;;;;17.75;16.50;;;;;;;;5041273;28;51156;-46
2022/04/09 12:03:38;;;;;;;;;13.00;9.25;;;;;;;;5040667;28;51135;-46
2022/04/09 12:06:25;;;;;;;;;13.75;9.00;;;;;;;;5041162;28;51554;-49
2022/04/09 12:09:10;;;;;;;;;9.00;7.75;;;;;;;;5040826;28;51157;-48
2022/04/09 12:11:55;;;;;;;;;9.50;6.50;;;;;;;;5041137;28;51108;-49
2022/04/09 12:14:50;;;;;;;;;10.00;8.00;;;;;;;;5024900;28;51465;-49
2022/04/09 12:17:36;;;;;;;;;12.50;7.50;;;;;;;;5040727;28;51232;-47
2022/04/09 12:20:42;;;;;;;;;10.50;7.00;;;;;;;;5040611;28;51327;-47
2022/04/09 12:24:14;;;;;;;;;8.25;8.25;;;;;;;;5040417;28;51150;-48
2022/04/09 12:27:01;;;;;;;;;7.50;7.50;;;;;;;;5032529;28;51992;-48
2022/04/09 12:29:48;;;;;;;;;10.50;7.75;;;;;;;;5040012;28;51406;-47
2022/04/09 12:32:34;;;;;;;;;10.00;8.50;;;;;;;;5040522;28;51434;-51
2022/04/09 12:35:29;;;;;;;;;12.25;9.00;;;;;;;;5040105;28;51092;-47
2022/04/09 12:38:34;;;;;;;;;10.00;9.00;;;;;;;;5040398;28;51055;-46
2022/04/09 12:41:19;;;;;;;;;13.25;10.75;;;;;;;;5040117;28;51568;-46
2022/04/09 12:44:23;;;;;;;;;9.50;7.25;;;;;;;;5040013;28;51187;-50
2022/04/09 12:47:20;;;;;;;;;11.00;11.00;;;;;;;;5040186;28;51536;-47
2022/04/09 12:50:18;;;;;;;;;13.75;8.75;;;;;;;;5039433;28;51080;-45
2022/04/09 12:53:09;;;;;;;;;11.75;9.00;;;;;;;;5040077;28;51219;-48
2022/04/09 12:55:56;;;;;;;;;11.75;10.00;;;;;;;;5024446;28;51161;-50
2022/04/09 12:58:51;;;;;;;;;9.25;9.00;;;;;;;;5040045;28;51159;-48
2022/04/09 13:01:50;;;;;;;;;10.50;7.50;;;;;;;;5039684;28;51119;-48
2022/04/09 13:04:36;;;;;;;;;12.50;10.50;;;;;;;;5039991;28;51144;-46
2022/04/09 13:07:30;;;;;;;;;13.75;11.25;;;;;;;;5039432;28;51100;-46
2022/04/09 13:10:18;;;;;;;;;13.50;8.00;;;;;;;;5039724;28;51151;-46
2022/04/09 13:13:24;;;;;;;;;14.25;12.50;;;;;;;;5039611;28;51205;-46
2022/04/09 13:16:10;;;;;;;;;20.00;14.25;;;;;;;;5039162;28;51131;-50
2022/04/09 13:18:59;;;;;;;;;21.75;16.50;;;;;;;;5039598;28;51073;-47
2022/04/09 13:21:44;;;;;;;;;17.75;14.50;;;;;;;;5039406;28;51427;-48
2022/04/09 13:24:32;;;;;;;;;12.25;12.25;;;;;;;;5039488;28;51336;-49
2022/04/09 13:27:17;;;;;;;;;16.00;13.50;;;;;;;;5039263;28;51176;-46
2022/04/09 13:30:02;;;;;;;;;25.00;18.00;;;;;;;;5039696;28;51125;-47
2022/04/09 13:32:47;;;;;;;;;19.00;18.00;;;;;;;;5039395;28;51260;-48
2022/04/09 13:35:34;;;;;;;;;37.75;32.00;;;;;;;;5039346;28;51440;-46
2022/04/09 13:38:19;;;;;;;;;34.25;30.25;;;;;;;;5039221;28;51136;-48
2022/04/09 13:41:05;;;;;;;;;20.50;19.50;;;;;;;;5038596;28;51128;-49
2022/04/09 13:43:50;;;;;;;;;21.50;18.00;;;;;;;;5039595;28;51136;-47
2022/04/09 13:46:49;;;;;;;;;16.25;12.75;;;;;;;;5038901;28;51588;-48
2022/04/09 13:49:34;;;;;;;;;19.25;13.75;;;;;;;;5039098;28;51090;-46
2022/04/09 13:52:20;;;;;;;;;17.25;10.25;;;;;;;;5038933;28;51138;-48
2022/04/09 13:55:05;;;;;;;;;15.75;11.75;;;;;;;;5039323;28;51132;-48
2022/04/09 13:57:52;;;;;;;;;15.25;14.50;;;;;;;;5039047;28;51184;-47
2022/04/09 14:00:38;;;;;;;;;20.50;18.25;;;;;;;;5038898;28;51104;-49
2022/04/09 14:03:23;;;;;;;;;16.50;14.50;;;;;;;;5038888;28;51577;-48
2022/04/09 14:06:10;;;;;;;;;17.75;10.00;;;;;;;;5038647;28;51104;-50
2022/04/09 14:08:54;;;;;;;;;8.50;8.50;;;;;;;;5022814;28;52214;-47
2022/04/09 14:11:41;;;;;;;;;12.50;10.00;;;;;;;;5038602;28;51418;-47
2022/04/09 14:14:29;;;;;;;;;5.25;2.25;;;;;;;;5038796;28;51175;-47
2022/04/09 14:17:15;;;;;;;;;9.50;8.00;;;;;;;;5038736;28;51152;-46
2022/04/09 14:20:01;;;;;;;;;13.75;10.50;;;;;;;;5038963;28;51116;-49
2022/04/09 14:22:55;;;;;;;;;10.75;8.25;;;;;;;;5035365;28;51639;-48
2022/04/09 14:25:40;;;;;;;;;11.75;9.50;;;;;;;;5034336;28;51136;-50
2022/04/09 14:28:26;;;;;;;;;12.50;9.50;;;;;;;;5028682;28;51777;-45
2022/04/09 14:31:12;;;;;;;;;12.50;10.00;;;;;;;;5033271;28;51048;-46
2022/04/09 14:34:08;;;;;;;;;6.75;6.00;;;;;;;;5029144;28;51236;-49
2022/04/09 14:36:54;;;;;;;;;11.50;7.25;;;;;;;;5029915;28;51155;-48
2022/04/09 14:39:39;;;;;;;;;6.00;6.00;;;;;;;;5035067;28;51488;-46
2022/04/09 14:42:23;;;;;;;;;7.75;6.00;;;;;;;;5035076;28;51322;-51
2022/04/09 14:45:21;;;;;;;;;6.50;6.50;;;;;;;;5035001;28;51006;-55
2022/04/09 14:48:23;;;;;;;;;12.00;6.25;;;;;;;;5032705;28;51532;-53
2022/04/09 14:51:11;;;;;;;;;69.00;55.25;;;;;;;;5032313;28;51105;-52
2022/04/09 14:53:56;;;;;;;;;13.00;11.25;;;;;;;;5038843;28;51172;-53
2022/04/09 14:56:40;;;;;;;;;25.25;24.00;;;;;;;;5037452;28;51511;-52
2022/04/09 14:59:25;;;;;;;;;37.50;31.50;;;;;;;;5035836;28;51200;-54
2022/04/09 15:02:09;;;;;;;;;19.50;18.25;;;;;;;;5036939;28;51477;-50
2022/04/09 15:04:54;;;;;;;;;20.50;19.00;;;;;;;;5038415;28;51439;-50
2022/04/09 15:07:46;;;;;;;;;16.50;14.50;;;;;;;;5037411;28;51258;-54
2022/04/09 15:10:36;;;;;;;;;13.75;12.50;;;;;;;;5037172;28;51231;-54
2022/04/09 15:13:32;;;;;;;;;14.75;7.25;;;;;;;;5038853;28;51532;-50
2022/04/09 15:16:16;;;;;;;;;11.00;10.00;;;;;;;;5039203;28;51128;-52
2022/04/09 15:19:05;;;;;;;;;17.25;11.75;;;;;;;;5035712;28;51136;-53
2022/04/09 15:21:54;;;;;;;;;18.25;12.50;;;;;;;;5037636;28;51387;-53
2022/04/09 15:24:40;;;;;;;;;13.75;8.50;;;;;;;;5037987;28;51153;-50
2022/04/09 15:27:37;;;;;;;;;16.00;8.75;;;;;;;;5039190;28;51081;-52
2022/04/09 15:30:30;;;;;;;;;15.50;12.25;;;;;;;;5038277;28;51428;-54
2022/04/09 15:33:15;;;;;;;;;16.00;12.25;;;;;;;;5039646;28;51156;-52
2022/04/09 15:36:00;;;;;;;;;15.50;12.25;;;;;;;;5036249;28;51136;-52
2022/04/09 15:38:45;;;;;;;;;20.25;12.50;;;;;;;;5037218;28;51612;-52
2022/04/09 15:41:29;;;;;;;;;15.25;9.00;;;;;;;;5036890;28;51067;-53
2022/04/09 15:44:25;;;;;;;;;13.50;11.00;;;;;;;;5038943;28;51521;-54
2022/04/09 15:47:10;;;;;;;;;25.50;15.25;;;;;;;;5040440;28;51357;-52
2022/04/09 15:50:06;;;;;;;;;20.50;14.25;;;;;;;;5037115;28;51024;-51
2022/04/09 15:52:50;;;;;;;;;21.50;16.25;;;;;;;;5032536;28;51031;-53
2022/04/09 15:55:42;;;;;;;;;19.50;15.25;;;;;;;;5034035;28;51356;-52
2022/04/09 15:58:37;;;;;;;;;19.50;16.50;;;;;;;;5035373;28;51163;-52
2022/04/09 16:01:22;;;;;;;;;17.75;15.75;;;;;;;;5020864;28;51145;-52
2022/04/09 16:04:10;;;;;;;;;19.75;18.50;;;;;;;;5033445;28;51268;-52
2022/04/09 16:07:05;;;;;;;;;16.00;12.00;;;;;;;;5037410;28;51123;-51
2022/04/09 16:09:49;;;;;;;;;34.75;27.75;;;;;;;;5039087;28;51845;-52
2022/04/09 16:12:45;;;;;;;;;18.75;12.75;;;;;;;;5039135;28;51183;-53
2022/04/09 16:15:30;;;;;;;;;15.75;11.00;;;;;;;;5037731;28;51129;-51
2022/04/09 16:18:15;;;;;;;;;16.50;10.25;;;;;;;;5026148;28;51141;-53
2022/04/09 16:21:00;;;;;;;;;55.75;41.75;;;;;;;;5023129;28;51155;-52
2022/04/09 16:23:44;;;;;;;;;32.25;27.50;;;;;;;;5040473;28;51144;-52
2022/04/09 16:26:33;;;;;;;;;21.00;18.00;;;;;;;;5041127;28;51429;-53
2022/04/09 16:29:24;;;;;;;;;16.00;13.00;;;;;;;;5025919;28;51443;-52
2022/04/09 16:32:13;;;;;;;;;14.50;11.25;;;;;;;;5017706;28;51117;-50
2022/04/09 16:35:02;;;;;;;;;16.75;15.75;;;;;;;;5018084;28;51572;-51
2022/04/09 16:38:03;;;;;;;;;12.00;10.50;;;;;;;;5017374;28;51081;-48
2022/04/09 16:40:50;;;;;;;;;12.50;9.75;;;;;;;;5003779;28;51083;-51
2022/04/09 16:43:44;;;;;;;;;12.50;7.00;;;;;;;;5017389;28;51238;-52